createdAt,value
2023-01-10T00:00:05.887Z,83.44
2023-01-10T00:02:36.120Z,83.21
2023-01-10T00:05:06.706Z,82.82
2023-01-10T00:07:36.960Z,83.27
2023-01-10T00:10:07.461Z,83.41
2023-01-10T00:12:56.227Z,83.28
2023-01-10T00:15:26.849Z,83.23
2023-01-10T00:17:57.032Z,83.22
2023-01-10T00:20:27.128Z,83.92
2023-01-10T00:22:57.819Z,83.25
2023-01-10T00:25:28.117Z,83.50
2023-01-10T00:28:04.983Z,83.50
2023-01-10T00:30:41.446Z,83.36
2023-01-10T00:33:19.828Z,83.45
2023-01-10T00:35:52.619Z,83.50
2023-01-10T00:38:24.807Z,83.56
2023-01-10T00:40:54.995Z,83.64
2023-01-10T00:43:43.847Z,83.93
2023-01-10T00:46:14.161Z,83.93
2023-01-10T00:48:44.374Z,83.78
2023-01-10T00:51:14.502Z,83.84
2023-01-10T00:53:44.817Z,83.71
2023-01-10T00:56:14.984Z,83.78
2023-01-10T00:58:45.149Z,83.81
2023-01-10T01:01:15.333Z,83.62
2023-01-10T01:03:45.559Z,84.04
2023-01-10T01:06:15.743Z,83.84
2023-01-10T01:08:46.070Z,83.81
2023-01-10T01:11:16.751Z,83.94
2023-01-10T01:13:46.953Z,83.68
2023-01-10T01:16:17.713Z,83.78
2023-01-10T01:18:47.939Z,83.97
2023-01-10T01:21:18.362Z,83.92
2023-01-10T01:27:29.095Z,83.92
2023-01-10T01:29:59.291Z,83.77
2023-01-10T01:32:29.481Z,83.52
2023-01-10T01:35:00.042Z,83.79
2023-01-10T01:37:30.253Z,83.88
2023-01-10T01:40:00.510Z,83.93
2023-01-10T01:42:33.204Z,83.95
2023-01-10T01:45:31.072Z,83.91
2023-01-10T01:48:09.842Z,84.03
2023-01-10T01:51:20.887Z,84.01
2023-01-10T01:54:00.148Z,83.57
2023-01-10T01:56:37.352Z,83.69
2023-01-10T01:59:14.613Z,83.74
2023-01-10T02:01:48.044Z,83.70
2023-01-10T02:04:27.251Z,83.95
2023-01-10T02:06:59.532Z,83.77
2023-01-10T02:09:44.179Z,83.83
2023-01-10T02:12:16.044Z,83.54
2023-01-10T02:14:49.604Z,83.59
2023-01-10T02:17:19.702Z,83.49
2023-01-10T02:20:21.997Z,83.24
2023-01-10T02:23:23.282Z,83.56
2023-01-10T02:26:05.450Z,83.43
2023-01-10T02:28:48.065Z,83.37
2023-01-10T02:31:43.698Z,83.35
2023-01-10T02:34:16.937Z,83.24
2023-01-10T02:37:06.052Z,83.07
2023-01-10T02:39:48.240Z,83.08
2023-01-10T02:42:31.774Z,82.76
2023-01-10T02:45:13.010Z,82.77
2023-01-10T02:47:43.328Z,83.03
2023-01-10T02:50:42.032Z,82.66
2023-01-10T02:53:18.911Z,82.58
2023-01-10T02:56:18.803Z,82.97
2023-01-10T02:59:20.337Z,82.29
2023-01-10T03:01:59.399Z,82.66
2023-01-10T03:04:29.632Z,82.67
2023-01-10T03:07:15.764Z,82.75
2023-01-10T03:09:59.182Z,82.71
2023-01-10T03:12:38.382Z,82.90
2023-01-10T03:15:12.284Z,82.86
2023-01-10T03:17:46.648Z,82.87
2023-01-10T03:20:19.914Z,82.78
2023-01-10T03:22:53.087Z,82.43
2023-01-10T03:25:28.792Z,82.51
2023-01-10T03:28:05.267Z,82.06
2023-01-10T03:30:44.118Z,82.18
2023-01-10T03:33:19.819Z,82.83
2023-01-10T03:36:19.066Z,82.81
2023-01-10T03:39:14.693Z,82.51
2023-01-10T03:42:10.349Z,82.29
2023-01-10T03:44:58.993Z,82.54
2023-01-10T03:47:42.542Z,82.46
2023-01-10T03:50:18.801Z,82.50
2023-01-10T03:52:48.986Z,82.46
2023-01-10T03:55:23.327Z,82.57
2023-01-10T03:57:53.733Z,82.30
2023-01-10T04:00:24.562Z,82.39
2023-01-10T04:02:55.945Z,82.62
2023-01-10T04:05:26.761Z,82.67
2023-01-10T04:07:57.091Z,82.82
2023-01-10T04:10:29.962Z,82.72
2023-01-10T04:13:01.650Z,82.49
2023-01-10T04:15:31.904Z,82.64
2023-01-10T04:18:02.126Z,82.69
2023-01-10T04:20:32.241Z,82.46
2023-01-10T04:23:02.379Z,82.73
2023-01-10T04:25:32.554Z,82.09
2023-01-10T04:28:02.709Z,82.82
2023-01-10T04:30:32.866Z,82.65
2023-01-10T04:33:02.942Z,82.67
2023-01-10T04:35:33.223Z,82.82
2023-01-10T04:38:03.458Z,82.44
2023-01-10T04:40:33.678Z,82.65
2023-01-10T04:43:03.836Z,82.31
2023-01-10T04:45:34.195Z,82.14
2023-01-10T04:48:04.664Z,82.27
2023-01-10T04:50:34.843Z,82.17
2023-01-10T04:53:04.933Z,81.97
2023-01-10T04:55:35.464Z,82.28
2023-01-10T04:58:05.679Z,82.37
2023-01-10T05:00:35.871Z,82.04
2023-01-10T05:03:06.179Z,82.26
2023-01-10T05:05:36.404Z,81.83
2023-01-10T05:08:06.590Z,81.96
2023-01-10T05:10:36.686Z,81.81
2023-01-10T05:13:06.922Z,81.99
2023-01-10T05:15:37.014Z,81.67
2023-01-10T05:18:07.200Z,81.78
2023-01-10T05:20:37.347Z,81.97
2023-01-10T05:23:07.522Z,82.02
2023-01-10T05:25:37.761Z,82.05
2023-01-10T05:28:07.939Z,81.93
2023-01-10T05:30:38.115Z,81.77
2023-01-10T05:33:08.206Z,81.86
2023-01-10T05:35:38.513Z,82.11
2023-01-10T05:38:08.638Z,82.21
2023-01-10T05:40:38.800Z,81.97
2023-01-10T05:43:09.747Z,82.02
2023-01-10T05:45:39.834Z,81.62
2023-01-10T05:48:09.981Z,81.85
2023-01-10T05:50:40.004Z,81.69
2023-01-10T05:53:10.442Z,82.26
2023-01-10T05:55:40.584Z,81.71
2023-01-10T05:58:13.531Z,82.02
2023-01-10T06:00:43.687Z,82.18
2023-01-10T06:03:13.976Z,81.99
2023-01-10T06:05:44.219Z,81.91
2023-01-10T06:08:14.448Z,82.06
2023-01-10T06:10:44.820Z,81.57
2023-01-10T06:13:15.381Z,81.71
2023-01-10T06:15:45.637Z,81.67
2023-01-10T06:18:16.406Z,81.82
2023-01-10T06:20:46.772Z,81.99
2023-01-10T06:23:17.083Z,81.56
2023-01-10T06:25:47.256Z,81.83
2023-01-10T06:28:17.379Z,81.89
2023-01-10T06:30:47.652Z,81.86
2023-01-10T06:33:17.932Z,81.74
2023-01-10T06:35:48.418Z,81.55
2023-01-10T06:38:18.920Z,81.73
2023-01-10T06:40:48.988Z,81.71
2023-01-10T06:43:19.658Z,82.13
2023-01-10T06:45:49.893Z,81.87
2023-01-10T06:48:20.042Z,82.34
2023-01-10T06:50:50.488Z,82.06
2023-01-10T06:53:20.668Z,82.05
2023-01-10T06:55:50.917Z,81.86
2023-01-10T06:58:21.333Z,82.11
2023-01-10T07:00:52.051Z,81.95
2023-01-10T07:03:22.341Z,82.20
2023-01-10T07:05:52.631Z,82.03
2023-01-10T07:08:22.857Z,81.90
2023-01-10T07:10:53.054Z,81.68
2023-01-10T07:13:23.108Z,81.77
2023-01-10T07:15:53.372Z,82.10
2023-01-10T07:18:23.443Z,81.83
2023-01-10T07:20:53.601Z,81.93
2023-01-10T07:23:24.165Z,82.20
2023-01-10T07:25:54.378Z,82.08
2023-01-10T07:28:24.436Z,82.01
2023-01-10T07:30:54.658Z,81.60
2023-01-10T07:33:24.884Z,81.80
2023-01-10T07:35:55.058Z,82.13
2023-01-10T07:38:25.160Z,81.66
2023-01-10T07:40:55.405Z,81.88
2023-01-10T07:43:28.604Z,81.93
2023-01-10T07:46:02.891Z,81.85
2023-01-10T07:48:38.868Z,81.97
2023-01-10T07:51:10.020Z,82.01
2023-01-10T07:53:40.306Z,81.78
2023-01-10T07:56:10.530Z,82.06
2023-01-10T07:58:40.669Z,82.10
2023-01-10T08:01:11.976Z,82.15
2023-01-10T08:03:42.208Z,81.79
2023-01-10T08:06:13.181Z,81.90
2023-01-10T08:08:44.440Z,81.70
2023-01-10T08:11:14.748Z,81.65
2023-01-10T08:13:44.883Z,81.81
2023-01-10T08:16:15.864Z,81.92
2023-01-10T08:18:46.353Z,81.57
2023-01-10T08:21:16.448Z,81.83
2023-01-10T08:23:46.634Z,81.89
2023-01-10T08:26:16.813Z,81.94
2023-01-10T08:28:47.026Z,82.05
2023-01-10T08:31:18.392Z,81.83
2023-01-10T08:33:48.740Z,82.12
2023-01-10T08:36:20.863Z,82.07
2023-01-10T08:38:51.363Z,82.03
2023-01-10T08:41:21.514Z,81.88
2023-01-10T08:43:52.739Z,81.66
2023-01-10T08:46:39.283Z,81.78
2023-01-10T08:49:10.117Z,81.86
2023-01-10T08:51:43.047Z,81.97
2023-01-10T08:54:13.291Z,81.76
2023-01-10T08:56:43.367Z,81.79
2023-01-10T08:59:13.621Z,81.63
2023-01-10T09:01:43.795Z,81.83
2023-01-10T09:04:14.061Z,81.48
2023-01-10T09:06:44.147Z,81.00
2023-01-10T09:09:14.345Z,81.41
2023-01-10T09:11:44.474Z,81.36
2023-01-10T09:14:15.545Z,81.29
2023-01-10T09:16:46.412Z,81.40
2023-01-10T09:19:16.521Z,80.98
2023-01-10T09:21:46.655Z,80.98
2023-01-10T09:24:16.906Z,81.02
2023-01-10T09:26:47.110Z,80.98
2023-01-10T09:29:17.403Z,81.00
2023-01-10T09:31:48.683Z,81.26
2023-01-10T09:34:19.084Z,80.77
2023-01-10T09:36:49.788Z,81.17
2023-01-10T09:39:21.416Z,80.98
2023-01-10T09:42:12.187Z,80.74
2023-01-10T09:45:17.877Z,80.53
2023-01-10T09:48:10.310Z,80.61
2023-01-10T09:51:03.427Z,80.58
2023-01-10T09:53:37.330Z,80.57
2023-01-10T09:56:13.582Z,80.33
2023-01-10T09:58:45.126Z,80.25
2023-01-10T10:01:19.819Z,79.84
2023-01-10T10:04:05.933Z,79.16
2023-01-10T10:06:36.108Z,79.33
2023-01-10T10:09:06.297Z,79.75
2023-01-10T10:11:55.813Z,79.77
2023-01-10T10:14:34.231Z,79.38
2023-01-10T10:17:19.636Z,79.49
2023-01-10T10:20:17.459Z,79.56
2023-01-10T10:23:04.742Z,80.18
2023-01-10T10:25:40.881Z,79.66
2023-01-10T10:28:54.015Z,79.67
2023-01-10T10:31:36.500Z,79.67
2023-01-10T10:34:36.884Z,79.72
2023-01-10T10:37:17.703Z,79.52
2023-01-10T10:40:18.898Z,79.86
2023-01-10T10:42:53.063Z,79.82
2023-01-10T10:45:47.197Z,79.72
2023-01-10T10:48:29.558Z,79.66
2023-01-10T10:50:59.671Z,79.58
2023-01-10T10:53:33.013Z,79.77
2023-01-10T10:56:06.424Z,80.02
2023-01-10T10:58:38.759Z,80.01
2023-01-10T11:01:14.261Z,79.78
2023-01-10T11:04:10.435Z,79.73
2023-01-10T11:06:48.819Z,79.75
2023-01-10T11:09:43.068Z,79.70
2023-01-10T11:12:18.888Z,79.83
2023-01-10T11:14:52.221Z,79.68
2023-01-10T11:17:28.680Z,79.86
2023-01-10T11:20:00.750Z,79.90
2023-01-10T11:22:38.828Z,79.74
2023-01-10T11:25:23.802Z,79.81
2023-01-10T11:27:58.081Z,79.39
2023-01-10T11:30:31.410Z,79.56
2023-01-10T11:33:04.817Z,79.54
2023-01-10T11:35:41.540Z,79.66
2023-01-10T11:38:17.343Z,79.30
2023-01-10T11:40:57.279Z,79.15
2023-01-10T11:43:34.086Z,78.77
2023-01-10T11:46:14.989Z,79.15
2023-01-10T11:49:05.465Z,78.41
2023-01-10T11:51:45.454Z,78.23
2023-01-10T11:54:25.211Z,78.28
2023-01-10T11:56:59.617Z,78.21
2023-01-10T11:59:30.345Z,78.26
2023-01-10T12:02:05.298Z,78.54
2023-01-10T12:04:42.117Z,78.01
2023-01-10T12:07:12.622Z,77.75
2023-01-10T12:09:45.292Z,77.95
2023-01-10T12:12:29.510Z,78.04
2023-01-10T12:15:20.646Z,77.98
2023-01-10T12:17:51.620Z,77.88
2023-01-10T12:20:22.924Z,77.41
2023-01-10T12:23:08.749Z,77.25
2023-01-10T12:25:42.170Z,77.75
2023-01-10T12:28:22.455Z,77.23
2023-01-10T12:30:55.436Z,77.13
2023-01-10T12:33:34.210Z,75.49
2023-01-10T12:36:12.978Z,75.29
2023-01-10T12:39:04.008Z,74.47
2023-01-10T12:42:01.839Z,74.41
2023-01-10T12:44:45.869Z,74.97
2023-01-10T12:47:32.767Z,74.78
2023-01-10T12:50:13.645Z,75.51
2023-01-10T12:53:08.473Z,75.38
2023-01-10T12:55:45.435Z,75.49
2023-01-10T12:58:38.144Z,74.85
2023-01-10T13:01:14.907Z,75.72
2023-01-10T13:03:46.899Z,75.55
2023-01-10T13:06:29.434Z,75.85
2023-01-10T13:09:08.335Z,75.74
2023-01-10T13:11:53.940Z,75.66
2023-01-10T13:14:39.743Z,76.04
2023-01-10T13:17:29.061Z,75.75
2023-01-10T13:20:17.298Z,75.75
2023-01-10T13:22:58.934Z,76.06
2023-01-10T13:25:38.209Z,76.48
2023-01-10T13:28:22.792Z,76.46
2023-01-10T13:30:56.048Z,76.19
2023-01-10T13:33:30.224Z,76.24
2023-01-10T13:36:19.504Z,76.11
2023-01-10T13:38:52.173Z,76.46
2023-01-10T13:41:42.355Z,76.48
2023-01-10T13:44:14.712Z,76.60
2023-01-10T13:46:50.824Z,76.36
2023-01-10T13:49:39.826Z,76.25
2023-01-10T13:52:31.624Z,76.33
2023-01-10T13:55:20.573Z,76.86
2023-01-10T13:57:53.958Z,76.75
2023-01-10T14:00:47.578Z,76.83
2023-01-10T14:03:43.714Z,77.03
2023-01-10T14:06:13.965Z,77.01
2023-01-10T14:08:54.835Z,77.17
2023-01-10T14:11:33.710Z,77.38
2023-01-10T14:14:04.017Z,77.55
2023-01-10T14:16:38.329Z,77.52
2023-01-10T14:19:29.373Z,77.65
2023-01-10T14:22:01.929Z,77.92
2023-01-10T14:24:41.748Z,78.31
2023-01-10T14:27:16.252Z,78.17
2023-01-10T14:29:51.593Z,78.52
2023-01-10T14:32:38.676Z,78.62
2023-01-10T14:35:15.738Z,78.62
2023-01-10T14:37:57.001Z,78.95
2023-01-10T14:40:44.788Z,78.75
2023-01-10T14:43:26.643Z,79.07
2023-01-10T14:46:01.606Z,78.94
2023-01-10T14:48:51.380Z,79.17
2023-01-10T14:51:30.103Z,79.31
2023-01-10T14:54:11.379Z,79.11
2023-01-10T14:56:47.019Z,78.90
2023-01-10T14:59:34.380Z,79.57
2023-01-10T15:02:13.672Z,79.51
2023-01-10T15:05:09.838Z,80.19
2023-01-10T15:07:39.986Z,79.78
2023-01-10T15:10:32.960Z,80.30
2023-01-10T15:13:06.378Z,80.10
2023-01-10T15:15:38.654Z,80.25
2023-01-10T15:18:33.393Z,80.88
2023-01-10T15:21:04.593Z,80.28
2023-01-10T15:23:43.261Z,80.50
2023-01-10T15:26:25.690Z,81.05
2023-01-10T15:29:25.225Z,81.48
2023-01-10T15:32:03.554Z,80.80
2023-01-10T15:34:34.047Z,80.86
2023-01-10T15:37:04.793Z,80.88
2023-01-10T15:39:39.517Z,80.86
2023-01-10T15:42:12.365Z,81.02
2023-01-10T15:44:52.751Z,81.22
2023-01-10T15:47:48.793Z,81.76
2023-01-10T15:50:32.223Z,81.56
2023-01-10T15:53:09.359Z,81.22
2023-01-10T15:55:47.857Z,81.38
2023-01-10T15:58:32.951Z,81.33
2023-01-10T16:01:04.752Z,81.58
2023-01-10T16:03:37.407Z,81.56
2023-01-10T16:06:10.066Z,81.50
2023-01-10T16:08:40.358Z,81.50
2023-01-10T16:11:39.792Z,81.64
2023-01-10T16:14:10.049Z,81.44
2023-01-10T16:16:40.444Z,81.68
2023-01-10T16:19:11.155Z,81.74
2023-01-10T16:21:49.579Z,81.72
2023-01-10T16:24:25.598Z,81.82
2023-01-10T16:26:58.092Z,81.78
2023-01-10T16:29:28.621Z,81.72
2023-01-10T16:31:59.043Z,82.08
2023-01-10T16:34:30.987Z,81.91
2023-01-10T16:37:01.107Z,81.83
2023-01-10T16:39:31.218Z,81.88
2023-01-10T16:42:19.692Z,81.96
2023-01-10T16:44:50.063Z,81.89
2023-01-10T16:47:20.195Z,82.25
2023-01-10T16:49:50.299Z,82.15
2023-01-10T16:52:20.411Z,82.00
2023-01-10T16:54:50.545Z,82.00
2023-01-10T16:57:20.866Z,82.08
2023-01-10T16:59:51.039Z,82.37
2023-01-10T17:02:21.996Z,82.21
2023-01-10T17:04:52.198Z,82.17
2023-01-10T17:07:22.368Z,82.28
2023-01-10T17:09:52.483Z,82.30
2023-01-10T17:12:22.879Z,82.30
2023-01-10T17:14:53.387Z,82.38
2023-01-10T17:17:23.465Z,82.66
2023-01-10T17:19:53.558Z,82.30
2023-01-10T17:22:23.877Z,82.40
2023-01-10T17:24:54.152Z,82.26
2023-01-10T17:27:24.296Z,82.38
2023-01-10T17:29:54.471Z,82.20
2023-01-10T17:32:24.575Z,82.36
2023-01-10T17:34:54.777Z,82.83
2023-01-10T17:37:25.048Z,82.46
2023-01-10T17:39:55.362Z,82.31
2023-01-10T17:42:26.130Z,82.12
2023-01-10T17:44:56.813Z,82.10
2023-01-10T17:47:27.051Z,82.04
2023-01-10T17:49:57.667Z,82.11
2023-01-10T17:52:27.890Z,82.08
2023-01-10T17:54:59.574Z,82.17
2023-01-10T17:57:30.063Z,82.21
2023-01-10T18:00:00.104Z,82.14
2023-01-10T18:02:30.396Z,82.21
2023-01-10T18:05:00.775Z,82.38
2023-01-10T18:07:30.940Z,82.27
2023-01-10T18:10:01.212Z,82.33
2023-01-10T18:12:31.320Z,82.23
2023-01-10T18:15:01.726Z,82.18
2023-01-10T18:17:32.286Z,82.27
2023-01-10T18:20:02.409Z,82.28
2023-01-10T18:22:51.342Z,82.12
2023-01-10T18:25:21.508Z,82.01
2023-01-10T18:27:52.557Z,81.97
2023-01-10T18:30:23.507Z,82.13
2023-01-10T18:32:54.251Z,82.22
2023-01-10T18:35:24.601Z,82.33
2023-01-10T18:37:56.168Z,82.05
2023-01-10T18:40:29.306Z,82.02
2023-01-10T18:42:59.467Z,81.94
2023-01-10T18:45:30.781Z,82.04
2023-01-10T18:48:02.522Z,82.13
2023-01-10T18:50:32.767Z,82.10
2023-01-10T18:53:03.711Z,82.07
2023-01-10T18:55:34.095Z,82.06
2023-01-10T18:58:04.235Z,82.17
2023-01-10T19:00:34.408Z,82.05
2023-01-10T19:03:04.805Z,82.03
2023-01-10T19:05:35.023Z,81.85
2023-01-10T19:08:06.699Z,82.13
2023-01-10T19:10:57.269Z,82.01
2023-01-10T19:13:27.268Z,82.33
2023-01-10T19:16:20.008Z,82.40
2023-01-10T19:18:53.452Z,82.24
2023-01-10T19:21:25.750Z,82.30
2023-01-10T19:23:56.771Z,82.40
2023-01-10T19:26:27.081Z,82.37
2023-01-10T19:28:57.457Z,82.46
2023-01-10T19:31:29.446Z,82.32
2023-01-10T19:34:01.030Z,82.29
2023-01-10T19:36:34.948Z,82.20
2023-01-10T19:39:07.168Z,82.21
2023-01-10T19:41:38.933Z,82.27
2023-01-10T19:44:14.003Z,82.19
2023-01-10T19:46:45.658Z,82.34
2023-01-10T19:49:19.543Z,82.25
2023-01-10T19:51:55.692Z,82.22
2023-01-10T19:54:25.756Z,82.36
2023-01-10T19:56:56.744Z,82.39
2023-01-10T19:59:28.074Z,82.32
2023-01-10T20:01:58.458Z,82.44
2023-01-10T20:04:28.759Z,82.16
2023-01-10T20:06:59.321Z,82.39
2023-01-10T20:09:29.770Z,82.26
2023-01-10T20:11:59.961Z,82.29
2023-01-10T20:14:30.513Z,82.36
2023-01-10T20:17:01.466Z,82.32
2023-01-10T20:19:31.592Z,82.50
2023-01-10T20:22:01.785Z,82.20
2023-01-10T20:24:32.185Z,82.43
2023-01-10T20:27:06.644Z,82.55
2023-01-10T20:29:42.942Z,82.38
2023-01-10T20:32:17.258Z,82.31
2023-01-10T20:34:49.812Z,82.50
2023-01-10T20:37:20.006Z,82.33
2023-01-10T20:39:50.531Z,82.12
2023-01-10T20:42:20.885Z,82.42
2023-01-10T20:44:51.039Z,82.67
2023-01-10T20:47:23.310Z,82.64
2023-01-10T20:49:53.410Z,82.57
2023-01-10T20:52:23.592Z,82.47
2023-01-10T20:54:53.912Z,82.49
2023-01-10T20:57:24.142Z,82.26
2023-01-10T20:59:54.256Z,82.52
2023-01-10T21:02:24.596Z,82.42
2023-01-10T21:04:54.774Z,82.57
2023-01-10T21:07:25.070Z,82.29
2023-01-10T21:09:55.185Z,82.68
2023-01-10T21:12:27.674Z,82.41
2023-01-10T21:14:58.076Z,82.66
2023-01-10T21:17:28.234Z,82.29
2023-01-10T21:19:58.360Z,82.42
2023-01-10T21:22:28.964Z,82.21
2023-01-10T21:24:59.251Z,82.35
2023-01-10T21:27:31.458Z,82.22
2023-01-10T21:30:01.905Z,82.16
2023-01-10T21:32:32.728Z,82.37
2023-01-10T21:35:03.287Z,82.25
2023-01-10T21:37:33.445Z,82.34
2023-01-10T21:40:04.788Z,82.52
2023-01-10T21:42:34.933Z,82.30
2023-01-10T21:45:07.115Z,82.37
2023-01-10T21:47:38.589Z,82.30
2023-01-10T21:50:12.150Z,82.28
2023-01-10T21:52:42.922Z,82.28
2023-01-10T21:55:15.421Z,82.36
2023-01-10T21:57:45.674Z,82.33
2023-01-10T22:00:16.462Z,82.35
2023-01-10T22:02:47.889Z,82.34
2023-01-10T22:05:18.641Z,82.39
2023-01-10T22:07:48.913Z,82.31
2023-01-10T22:10:19.517Z,82.40
2023-01-10T22:12:49.824Z,82.22
2023-01-10T22:15:20.909Z,82.17
2023-01-10T22:17:51.407Z,82.38
2023-01-10T22:20:21.795Z,82.31
2023-01-10T22:22:51.917Z,82.39
2023-01-10T22:25:22.139Z,82.45
2023-01-10T22:27:53.582Z,82.46
2023-01-10T22:30:23.846Z,82.36
2023-01-10T22:32:57.621Z,82.33
2023-01-10T22:35:28.011Z,82.37
2023-01-10T22:37:58.143Z,82.25
2023-01-10T22:40:28.251Z,82.54
2023-01-10T22:42:58.375Z,82.09
2023-01-10T22:45:31.601Z,82.24
2023-01-10T22:48:01.800Z,82.48
2023-01-10T22:50:32.607Z,82.29
2023-01-10T22:53:03.443Z,82.21
2023-01-10T22:55:34.600Z,82.25
2023-01-10T22:58:04.891Z,82.29
2023-01-10T23:00:35.181Z,82.37
2023-01-10T23:03:05.333Z,82.37
2023-01-10T23:05:35.516Z,82.22
2023-01-10T23:08:05.855Z,82.53
2023-01-10T23:10:36.008Z,82.41
2023-01-10T23:13:07.474Z,82.59
2023-01-10T23:15:37.600Z,82.52
2023-01-10T23:18:07.921Z,82.47
2023-01-10T23:20:38.119Z,82.40
2023-01-10T23:23:08.295Z,82.58
2023-01-10T23:25:38.374Z,82.35
2023-01-10T23:28:09.210Z,82.53
2023-01-10T23:30:39.451Z,82.41
2023-01-10T23:33:09.589Z,82.46
2023-01-10T23:35:39.696Z,82.23
2023-01-10T23:38:09.842Z,82.20
2023-01-10T23:40:40.103Z,81.95
2023-01-10T23:43:10.359Z,82.16
2023-01-10T23:45:40.606Z,82.18
2023-01-10T23:48:11.515Z,82.36
2023-01-10T23:50:41.738Z,82.47
2023-01-10T23:53:12.232Z,82.35
2023-01-10T23:55:43.249Z,82.36
2023-01-10T23:58:13.673Z,82.50
